createdAt,value
2018-02-21T00:00:53.893Z,992.5
2018-02-21T00:01:53.881Z,992.51
2018-02-21T00:02:53.870Z,992.48
2018-02-21T00:03:53.899Z,992.54
2018-02-21T00:04:53.851Z,992.51
2018-02-21T00:05:53.834Z,992.52
2018-02-21T00:06:53.825Z,992.5
2018-02-21T00:07:53.814Z,992.6
2018-02-21T00:08:53.798Z,992.57
2018-02-21T00:09:53.785Z,992.59
2018-02-21T00:10:53.774Z,992.65
2018-02-21T00:11:53.761Z,992.62
2018-02-21T00:12:53.751Z,992.59
2018-02-21T00:13:53.740Z,992.61
2018-02-21T00:14:53.726Z,992.62
2018-02-21T00:15:53.713Z,992.6
2018-02-21T00:16:53.709Z,992.63
2018-02-21T00:17:53.689Z,992.6
2018-02-21T00:18:53.724Z,992.63
2018-02-21T00:19:53.671Z,992.63
2018-02-21T00:20:53.664Z,992.65
2018-02-21T00:21:53.650Z,992.61
2018-02-21T00:22:53.635Z,992.61
2018-02-21T00:23:53.633Z,992.56
2018-02-21T00:24:53.608Z,992.56
2018-02-21T00:25:53.595Z,992.56
2018-02-21T00:26:53.583Z,992.59
2018-02-21T00:27:53.574Z,992.61
2018-02-21T00:28:53.559Z,992.59
2018-02-21T00:29:53.547Z,992.58
2018-02-21T00:30:53.536Z,992.6
2018-02-21T00:31:53.524Z,992.55
2018-02-21T00:32:53.517Z,992.55
2018-02-21T00:33:53.509Z,992.55
2018-02-21T00:34:53.491Z,992.54
2018-02-21T00:35:53.482Z,992.55
2018-02-21T00:36:53.473Z,992.6
2018-02-21T00:37:53.457Z,992.61
2018-02-21T00:38:53.440Z,992.59
2018-02-21T00:39:53.434Z,992.59
2018-02-21T00:40:53.418Z,992.55
2018-02-21T00:41:53.405Z,992.56
2018-02-21T00:42:53.393Z,992.55
2018-02-21T00:43:53.380Z,992.57
2018-02-21T00:44:53.369Z,992.54
2018-02-21T00:45:53.363Z,992.59
2018-02-21T00:46:53.346Z,992.55
2018-02-21T00:47:53.333Z,992.53
2018-02-21T00:48:53.321Z,992.55
2018-02-21T00:49:53.308Z,992.57
2018-02-21T00:50:53.312Z,992.57
2018-02-21T00:51:53.284Z,992.58
2018-02-21T00:52:53.273Z,992.58
2018-02-21T00:53:53.261Z,992.57
2018-02-21T00:54:53.249Z,992.58
2018-02-21T00:55:53.240Z,992.64
2018-02-21T00:56:53.236Z,992.62
2018-02-21T00:57:53.212Z,992.67
2018-02-21T00:58:53.199Z,992.66
2018-02-21T00:59:53.198Z,992.68
2018-02-21T01:00:53.176Z,992.69
2018-02-21T01:01:53.175Z,992.67
2018-02-21T01:02:53.151Z,992.66
2018-02-21T01:03:53.139Z,992.7
2018-02-21T01:04:53.126Z,992.69
2018-02-21T01:05:53.118Z,992.68
2018-02-21T01:06:53.119Z,992.68
2018-02-21T01:07:53.089Z,992.7
2018-02-21T01:08:53.077Z,992.69
2018-02-21T01:09:53.068Z,992.68
2018-02-21T01:10:53.052Z,992.7
2018-02-21T01:11:53.040Z,992.72
2018-02-21T01:12:53.028Z,992.72
2018-02-21T01:13:53.015Z,992.72
2018-02-21T01:14:53.003Z,992.69
2018-02-21T01:15:52.991Z,992.72
2018-02-21T01:16:52.977Z,992.73
2018-02-21T01:17:52.970Z,992.75
2018-02-21T01:18:52.953Z,992.79
2018-02-21T01:19:52.939Z,992.79
2018-02-21T01:20:53.184Z,992.8
2018-02-21T01:21:52.914Z,992.74
2018-02-21T01:22:52.912Z,992.8
2018-02-21T01:23:53.098Z,992.74
2018-02-21T01:24:53.057Z,992.71
2018-02-21T01:25:52.865Z,992.75
2018-02-21T01:26:52.852Z,992.73
2018-02-21T01:27:52.849Z,992.73
2018-02-21T01:28:52.828Z,992.72
2018-02-21T01:29:52.815Z,992.77
2018-02-21T01:30:52.801Z,992.74
2018-02-21T01:31:52.790Z,992.81
2018-02-21T01:32:52.776Z,992.8
2018-02-21T01:33:52.769Z,992.76
2018-02-21T01:34:52.750Z,992.79
2018-02-21T01:35:52.738Z,992.75
2018-02-21T01:36:52.727Z,992.81
2018-02-21T01:37:52.714Z,992.84
2018-02-21T01:38:52.701Z,992.83
2018-02-21T01:39:52.688Z,992.83
2018-02-21T01:40:52.674Z,992.87
2018-02-21T01:41:52.662Z,992.85
2018-02-21T01:42:52.656Z,992.87
2018-02-21T01:43:52.637Z,992.9
2018-02-21T01:44:52.629Z,992.86
2018-02-21T01:45:52.614Z,992.9
2018-02-21T01:46:52.601Z,992.89
2018-02-21T01:47:52.586Z,992.93
2018-02-21T01:48:52.575Z,992.91
2018-02-21T01:49:52.569Z,992.94
2018-02-21T01:50:52.553Z,992.92
2018-02-21T01:51:52.537Z,992.96
2018-02-21T01:52:52.523Z,992.92
2018-02-21T01:53:52.542Z,992.98
2018-02-21T01:54:52.499Z,992.94
2018-02-21T01:55:52.487Z,992.96
2018-02-21T01:56:52.474Z,992.89
2018-02-21T01:57:52.469Z,992.96
2018-02-21T01:58:52.456Z,992.97
2018-02-21T01:59:52.437Z,992.93
2018-02-21T02:00:52.425Z,992.97
2018-02-21T02:01:52.412Z,992.92
2018-02-21T02:02:52.400Z,992.94
2018-02-21T02:03:52.386Z,992.91
2018-02-21T02:04:52.378Z,992.89
2018-02-21T02:05:52.362Z,992.9
2018-02-21T02:06:52.348Z,992.89
2018-02-21T02:07:52.335Z,992.93
2018-02-21T02:08:52.328Z,992.91
2018-02-21T02:09:52.313Z,992.95
2018-02-21T02:10:52.304Z,992.98
2018-02-21T02:11:52.297Z,992.94
2018-02-21T02:12:52.283Z,992.98
2018-02-21T02:13:52.263Z,993.01
2018-02-21T02:14:52.249Z,993.02
2018-02-21T02:15:52.237Z,992.99
2018-02-21T02:16:52.225Z,993.01
2018-02-21T02:17:52.212Z,992.99
2018-02-21T02:18:52.202Z,993.01
2018-02-21T02:19:52.188Z,993.04
2018-02-21T02:20:52.173Z,993.01
2018-02-21T02:21:53.269Z,993.03
2018-02-21T02:22:52.151Z,993.1
2018-02-21T02:23:52.137Z,993.11
2018-02-21T02:24:52.125Z,993.06
2018-02-21T02:25:52.153Z,993.06
2018-02-21T02:26:52.101Z,993.06
2018-02-21T02:27:52.087Z,993.07
2018-02-21T02:28:52.076Z,993.03
2018-02-21T02:29:52.062Z,993.04
2018-02-21T02:30:52.052Z,993.08
2018-02-21T02:31:52.038Z,993.1
2018-02-21T02:32:52.026Z,993.08
2018-02-21T02:33:52.013Z,993.1
2018-02-21T02:34:52.001Z,993.1
2018-02-21T02:35:51.988Z,993.07
2018-02-21T02:36:51.975Z,993.06
2018-02-21T02:37:51.964Z,993.05
2018-02-21T02:38:51.953Z,993.04
2018-02-21T02:39:51.943Z,993.08
2018-02-21T02:40:51.926Z,993.12
2018-02-21T02:41:51.918Z,993.15
2018-02-21T02:42:51.900Z,993.09
2018-02-21T02:43:51.889Z,993.09
2018-02-21T02:44:51.880Z,993.09
2018-02-21T02:45:51.864Z,993.09
2018-02-21T02:46:51.853Z,993.08
2018-02-21T02:47:51.840Z,993.04
2018-02-21T02:48:51.828Z,993.1
2018-02-21T02:49:51.817Z,993.08
2018-02-21T02:50:51.805Z,993.06
2018-02-21T02:51:51.790Z,993.09
2018-02-21T02:52:51.777Z,993.02
2018-02-21T02:53:51.766Z,993.02
2018-02-21T02:54:51.752Z,993
2018-02-21T02:55:51.742Z,992.98
2018-02-21T02:56:51.733Z,993.01
2018-02-21T02:57:51.716Z,993.01
2018-02-21T02:58:51.703Z,992.98
2018-02-21T02:59:51.692Z,993
2018-02-21T03:00:51.681Z,992.97
2018-02-21T03:01:51.675Z,993.04
2018-02-21T03:02:51.654Z,993.07
2018-02-21T03:03:51.642Z,993.05
2018-02-21T03:04:51.645Z,993.1
2018-02-21T03:05:51.621Z,993.06
2018-02-21T03:06:51.606Z,993.1
2018-02-21T03:07:51.595Z,993.09
2018-02-21T03:08:51.585Z,993.09
2018-02-21T03:09:51.570Z,993.13
2018-02-21T03:10:51.564Z,993.15
2018-02-21T03:11:51.560Z,993.1
2018-02-21T03:12:51.537Z,993.06
2018-02-21T03:13:51.523Z,993.09
2018-02-21T03:14:51.511Z,993.16
2018-02-21T03:15:51.511Z,993.18
2018-02-21T03:16:51.485Z,993.15
2018-02-21T03:17:51.474Z,993.2
2018-02-21T03:18:51.462Z,993.22
2018-02-21T03:19:51.452Z,993.26
2018-02-21T03:20:51.438Z,993.25
2018-02-21T03:21:51.426Z,993.29
2018-02-21T03:22:51.414Z,993.27
2018-02-21T03:23:51.402Z,993.26
2018-02-21T03:24:51.393Z,993.32
2018-02-21T03:25:51.379Z,993.29
2018-02-21T03:26:51.366Z,993.3
2018-02-21T03:27:51.352Z,993.32
2018-02-21T03:28:51.342Z,993.36
2018-02-21T03:29:51.331Z,993.39
2018-02-21T03:30:51.317Z,993.41
2018-02-21T03:31:51.303Z,993.4
2018-02-21T03:32:51.291Z,993.44
2018-02-21T03:33:51.278Z,993.46
2018-02-21T03:34:51.282Z,993.46
2018-02-21T03:35:51.312Z,993.48
2018-02-21T03:36:51.241Z,993.46
2018-02-21T03:37:51.479Z,993.5
2018-02-21T03:38:51.218Z,993.5
2018-02-21T03:39:51.204Z,993.48
2018-02-21T03:40:51.192Z,993.46
2018-02-21T03:41:51.186Z,993.46
2018-02-21T03:42:51.167Z,993.47
2018-02-21T03:43:51.158Z,993.46
2018-02-21T03:44:51.144Z,993.46
2018-02-21T03:45:51.131Z,993.48
2018-02-21T03:46:51.120Z,993.54
2018-02-21T03:47:51.106Z,993.5
2018-02-21T03:48:51.094Z,993.5
2018-02-21T03:49:51.081Z,993.58
2018-02-21T03:50:51.070Z,993.53
2018-02-21T03:51:51.067Z,993.56
2018-02-21T03:52:51.047Z,993.51
2018-02-21T03:53:51.032Z,993.5
2018-02-21T03:54:51.020Z,993.49
2018-02-21T03:55:51.008Z,993.55
2018-02-21T03:56:50.996Z,993.5
2018-02-21T03:57:50.986Z,993.55
2018-02-21T03:58:50.971Z,993.59
2018-02-21T03:59:50.959Z,993.56
2018-02-21T04:00:50.955Z,993.58
2018-02-21T04:01:50.941Z,993.58
2018-02-21T04:02:50.922Z,993.56
2018-02-21T04:03:50.910Z,993.57
2018-02-21T04:04:50.900Z,993.6
2018-02-21T04:05:50.888Z,993.57
2018-02-21T04:06:50.876Z,993.59
2018-02-21T04:07:50.861Z,993.57
2018-02-21T04:08:50.848Z,993.55
2018-02-21T04:09:50.843Z,993.58
2018-02-21T04:10:50.824Z,993.58
2018-02-21T04:11:50.812Z,993.57
2018-02-21T04:12:50.800Z,993.59
2018-02-21T04:13:50.790Z,993.62
2018-02-21T04:14:50.775Z,993.64
2018-02-21T04:15:50.767Z,993.61
2018-02-21T04:16:50.750Z,993.61
2018-02-21T04:17:50.739Z,993.61
2018-02-21T04:18:50.729Z,993.6
2018-02-21T04:19:50.717Z,993.56
2018-02-21T04:20:50.702Z,993.61
2018-02-21T04:21:50.690Z,993.59
2018-02-21T04:22:50.680Z,993.57
2018-02-21T04:23:50.668Z,993.57
2018-02-21T04:24:50.653Z,993.58
2018-02-21T04:25:50.644Z,993.63
2018-02-21T04:26:50.629Z,993.61
2018-02-21T04:27:50.618Z,993.6
2018-02-21T04:28:50.606Z,993.59
2018-02-21T04:29:50.591Z,993.62
2018-02-21T04:30:50.579Z,993.62
2018-02-21T04:31:50.567Z,993.64
2018-02-21T04:32:50.559Z,993.73
2018-02-21T04:33:50.544Z,993.72
2018-02-21T04:34:50.530Z,993.69
2018-02-21T04:35:50.518Z,993.69
2018-02-21T04:36:50.508Z,993.72
2018-02-21T04:37:50.495Z,993.74
2018-02-21T04:38:50.481Z,993.7
2018-02-21T04:39:50.470Z,993.7
2018-02-21T04:40:50.456Z,993.74
2018-02-21T04:41:50.446Z,993.69
2018-02-21T04:42:50.433Z,993.67
2018-02-21T04:43:50.434Z,993.67
2018-02-21T04:44:50.409Z,993.7
2018-02-21T04:45:50.398Z,993.67
2018-02-21T04:46:50.389Z,993.66
2018-02-21T04:47:50.386Z,993.64
2018-02-21T04:48:50.367Z,993.68
2018-02-21T04:49:50.351Z,993.66
2018-02-21T04:50:50.337Z,993.69
2018-02-21T04:51:50.328Z,993.68
2018-02-21T04:52:50.327Z,993.67
2018-02-21T04:53:50.301Z,993.67
2018-02-21T04:54:50.290Z,993.66
2018-02-21T04:55:50.277Z,993.65
2018-02-21T04:56:50.270Z,993.67
2018-02-21T04:57:50.258Z,993.68
2018-02-21T04:58:51.845Z,993.63
2018-02-21T04:59:50.229Z,993.66
2018-02-21T05:00:50.221Z,993.67
2018-02-21T05:01:50.210Z,993.63
2018-02-21T05:02:50.192Z,993.63
2018-02-21T05:03:50.182Z,993.66
2018-02-21T05:04:50.170Z,993.68
2018-02-21T05:05:50.158Z,993.65
2018-02-21T05:06:50.155Z,993.66
2018-02-21T05:07:50.133Z,993.69
2018-02-21T05:08:50.122Z,993.7
2018-02-21T05:09:50.110Z,993.63
2018-02-21T05:10:50.097Z,993.62
2018-02-21T05:11:50.089Z,993.64
2018-02-21T05:12:50.076Z,993.61
2018-02-21T05:13:50.062Z,993.56
2018-02-21T05:14:50.051Z,993.56
2018-02-21T05:15:50.043Z,993.56
2018-02-21T05:16:50.042Z,993.58
2018-02-21T05:17:50.016Z,993.55
2018-02-21T05:18:50.004Z,993.54
2018-02-21T05:19:49.994Z,993.56
2018-02-21T05:20:49.989Z,993.57
2018-02-21T05:21:49.970Z,993.55
2018-02-21T05:22:49.961Z,993.58
2018-02-21T05:23:49.947Z,993.59
2018-02-21T05:24:49.934Z,993.58
2018-02-21T05:25:49.924Z,993.56
2018-02-21T05:26:49.910Z,993.56
2018-02-21T05:27:49.900Z,993.57
2018-02-21T05:28:49.888Z,993.54
2018-02-21T05:29:49.875Z,993.6
2018-02-21T05:30:49.864Z,993.56
2018-02-21T05:31:49.855Z,993.53
2018-02-21T05:32:49.839Z,993.59
2018-02-21T05:33:49.830Z,993.6
2018-02-21T05:34:49.820Z,993.58
2018-02-21T05:35:49.803Z,993.58
2018-02-21T05:36:49.792Z,993.59
2018-02-21T05:37:49.780Z,993.63
2018-02-21T05:38:49.773Z,993.59
2018-02-21T05:39:49.756Z,993.59
2018-02-21T05:40:49.744Z,993.55
2018-02-21T05:41:49.733Z,993.55
2018-02-21T05:42:49.725Z,993.6
2018-02-21T05:43:49.708Z,993.55
2018-02-21T05:44:49.697Z,993.54
2018-02-21T05:45:49.688Z,993.54
2018-02-21T05:46:49.673Z,993.48
2018-02-21T05:47:49.661Z,993.55
2018-02-21T05:48:49.649Z,993.53
2018-02-21T05:49:49.638Z,993.56
2018-02-21T05:50:49.624Z,993.52
2018-02-21T05:51:49.615Z,993.63
2018-02-21T05:52:49.603Z,993.61
2018-02-21T05:53:49.590Z,993.61
2018-02-21T05:54:49.578Z,993.63
2018-02-21T05:55:49.566Z,993.6
2018-02-21T05:56:49.554Z,993.68
2018-02-21T05:57:49.543Z,993.68
2018-02-21T05:58:49.543Z,993.66
2018-02-21T05:59:49.572Z,993.71
2018-02-21T06:00:49.507Z,993.73
2018-02-21T06:01:49.493Z,993.74
2018-02-21T06:02:49.482Z,993.7
2018-02-21T06:03:49.470Z,993.69
2018-02-21T06:04:49.456Z,993.77
2018-02-21T06:05:49.446Z,993.79
2018-02-21T06:06:49.434Z,993.81
2018-02-21T06:07:49.421Z,993.74
2018-02-21T06:08:49.408Z,993.8
2018-02-21T06:09:51.250Z,993.76
2018-02-21T06:10:49.383Z,993.76
2018-02-21T06:11:49.379Z,993.77
2018-02-21T06:12:49.360Z,993.78
2018-02-21T06:13:49.347Z,993.75
2018-02-21T06:14:49.337Z,993.77
2018-02-21T06:15:49.322Z,993.73
2018-02-21T06:16:49.310Z,993.79
2018-02-21T06:17:49.299Z,993.82
2018-02-21T06:18:49.286Z,993.8
2018-02-21T06:19:49.273Z,993.78
2018-02-21T06:20:49.264Z,993.72
2018-02-21T06:21:49.284Z,993.73
2018-02-21T06:22:49.237Z,993.75
2018-02-21T06:23:49.229Z,993.72
2018-02-21T06:24:49.212Z,993.75
2018-02-21T06:25:49.202Z,993.76
2018-02-21T06:26:49.188Z,993.77
2018-02-21T06:27:49.176Z,993.77
2018-02-21T06:28:49.184Z,993.8
2018-02-21T06:29:49.154Z,993.79
2018-02-21T06:30:49.141Z,993.76
2018-02-21T06:31:49.128Z,993.75
2018-02-21T06:32:49.118Z,993.75
2018-02-21T06:33:49.104Z,993.77
2018-02-21T06:34:49.092Z,993.72
2018-02-21T06:35:49.082Z,993.74
2018-02-21T06:36:49.069Z,993.67
2018-02-21T06:37:49.055Z,993.7
2018-02-21T06:38:49.044Z,993.67
2018-02-21T06:39:49.037Z,993.7
2018-02-21T06:40:49.021Z,993.64
2018-02-21T06:41:49.012Z,993.66
2018-02-21T06:42:48.995Z,993.6
2018-02-21T06:43:49.037Z,993.6
2018-02-21T06:44:48.977Z,993.59
2018-02-21T06:45:48.959Z,993.57
2018-02-21T06:46:48.953Z,993.58
2018-02-21T06:47:48.936Z,993.55
2018-02-21T06:48:48.927Z,993.56
2018-02-21T06:49:48.924Z,993.58
2018-02-21T06:50:48.899Z,993.5
2018-02-21T06:51:48.897Z,993.46
2018-02-21T06:52:48.882Z,993.5
2018-02-21T06:53:48.864Z,993.48
2018-02-21T06:54:48.852Z,993.45
2018-02-21T06:55:48.841Z,993.48
2018-02-21T06:56:48.828Z,993.51
2018-02-21T06:57:48.815Z,993.5
2018-02-21T06:58:48.804Z,993.48
2018-02-21T06:59:48.791Z,993.46
2018-02-21T07:00:48.779Z,993.41
2018-02-21T07:01:48.810Z,993.44
2018-02-21T07:02:48.771Z,993.45
2018-02-21T07:03:48.745Z,993.44
2018-02-21T07:04:48.733Z,993.42
2018-02-21T07:05:48.722Z,993.38
2018-02-21T07:06:48.720Z,993.38
2018-02-21T07:07:48.697Z,993.39
2018-02-21T07:08:48.697Z,993.42
2018-02-21T07:09:48.675Z,993.46
2018-02-21T07:10:48.663Z,993.41
2018-02-21T07:11:48.664Z,993.42
2018-02-21T07:12:48.644Z,993.45
2018-02-21T07:13:48.640Z,993.45
2018-02-21T07:14:48.617Z,993.5
2018-02-21T07:15:48.607Z,993.48
2018-02-21T07:16:48.606Z,993.45
2018-02-21T07:17:48.581Z,993.48
2018-02-21T07:18:48.567Z,993.5
2018-02-21T07:19:48.557Z,993.55
2018-02-21T07:20:48.552Z,993.51
2018-02-21T07:21:48.534Z,993.55
2018-02-21T07:22:48.522Z,993.57
2018-02-21T07:23:48.512Z,993.58
2018-02-21T07:24:48.499Z,993.55
2018-02-21T07:25:48.487Z,993.55
2018-02-21T07:26:48.476Z,993.54
2018-02-21T07:27:48.466Z,993.59
2018-02-21T07:28:48.451Z,993.54
2018-02-21T07:29:48.440Z,993.57
2018-02-21T07:30:48.429Z,993.54
2018-02-21T07:31:48.422Z,993.55
2018-02-21T07:32:48.406Z,993.56
2018-02-21T07:33:48.394Z,993.57
2018-02-21T07:34:48.384Z,993.55
2018-02-21T07:35:48.370Z,993.55
2018-02-21T07:36:48.357Z,993.54
2018-02-21T07:37:48.349Z,993.54
2018-02-21T07:38:48.366Z,993.56
2018-02-21T07:39:48.322Z,993.56
2018-02-21T07:40:48.311Z,993.58
2018-02-21T07:41:48.300Z,993.58
2018-02-21T07:42:48.288Z,993.62
2018-02-21T07:43:48.276Z,993.62
2018-02-21T07:44:48.264Z,993.65
2018-02-21T07:45:48.253Z,993.62
2018-02-21T07:46:48.240Z,993.62
2018-02-21T07:47:48.227Z,993.62
2018-02-21T07:48:48.219Z,993.67
2018-02-21T07:49:48.207Z,993.59
2018-02-21T07:50:48.193Z,993.64
2018-02-21T07:51:48.181Z,993.57
2018-02-21T07:52:48.170Z,993.64
2018-02-21T07:53:48.165Z,993.61
2018-02-21T07:54:48.147Z,993.58
2018-02-21T07:55:48.134Z,993.57
2018-02-21T07:56:48.123Z,993.59
2018-02-21T07:57:48.111Z,993.58
2018-02-21T07:58:48.101Z,993.61
2018-02-21T07:59:48.092Z,993.62
2018-02-21T08:00:48.075Z,993.61
2018-02-21T08:01:48.066Z,993.59
2018-02-21T08:02:48.051Z,993.55
2018-02-21T08:03:48.041Z,993.56
2018-02-21T08:04:48.029Z,993.51
2018-02-21T08:05:48.016Z,993.58
2018-02-21T08:06:48.013Z,993.58
2018-02-21T08:07:47.992Z,993.58
2018-02-21T08:08:47.980Z,993.59
2018-02-21T08:09:47.968Z,993.59
2018-02-21T08:10:47.968Z,993.61
2018-02-21T08:11:47.946Z,993.64
2018-02-21T08:12:47.943Z,993.6
2018-02-21T08:13:47.924Z,993.62
2018-02-21T08:14:47.910Z,993.65
2018-02-21T08:15:47.900Z,993.63
2018-02-21T08:16:47.887Z,993.61
2018-02-21T08:17:47.875Z,993.62
2018-02-21T08:18:47.864Z,993.65
2018-02-21T08:19:47.853Z,993.61
2018-02-21T08:20:47.961Z,993.68
2018-02-21T08:21:47.831Z,993.66
2018-02-21T08:22:47.820Z,993.64
2018-02-21T08:23:47.805Z,993.7
2018-02-21T08:24:47.793Z,993.68
2018-02-21T08:25:47.787Z,993.75
2018-02-21T08:26:51.274Z,993.73
2018-02-21T08:27:47.771Z,993.77
2018-02-21T08:28:47.748Z,993.75
2018-02-21T08:29:47.736Z,993.77
2018-02-21T08:30:47.727Z,993.7
2018-02-21T08:31:47.725Z,993.75
2018-02-21T08:32:47.703Z,993.77
2018-02-21T08:33:47.692Z,993.72
2018-02-21T08:34:47.683Z,993.76
2018-02-21T08:35:47.670Z,993.79
2018-02-21T08:36:47.663Z,993.79
2018-02-21T08:37:47.648Z,993.77
2018-02-21T08:38:47.639Z,993.81
2018-02-21T08:39:47.628Z,993.76
2018-02-21T08:40:47.616Z,993.78
2018-02-21T08:41:47.605Z,993.76
2018-02-21T08:42:47.591Z,993.8
2018-02-21T08:43:47.583Z,993.8
2018-02-21T08:44:47.573Z,993.78
2018-02-21T08:45:47.560Z,993.77
2018-02-21T08:46:47.548Z,993.76
2018-02-21T08:47:47.543Z,993.77
2018-02-21T08:48:47.526Z,993.81
2018-02-21T08:49:47.512Z,993.78
2018-02-21T08:50:47.503Z,993.73
2018-02-21T08:51:47.492Z,993.78
2018-02-21T08:52:47.483Z,993.75
2018-02-21T08:53:47.472Z,993.8
2018-02-21T08:54:47.461Z,993.8
2018-02-21T08:55:47.449Z,993.77
2018-02-21T08:56:47.437Z,993.81
2018-02-21T08:57:47.427Z,993.87
2018-02-21T08:58:47.465Z,993.87
2018-02-21T08:59:47.406Z,993.84
2018-02-21T09:00:47.394Z,993.84
2018-02-21T09:01:47.389Z,993.84
2018-02-21T09:02:47.372Z,993.83
2018-02-21T09:03:47.362Z,993.83
2018-02-21T09:04:47.353Z,993.82
2018-02-21T09:05:47.341Z,993.82
2018-02-21T09:06:47.336Z,993.83
2018-02-21T09:07:47.319Z,993.86
2018-02-21T09:08:47.308Z,993.9
2018-02-21T09:09:47.299Z,993.9
2018-02-21T09:10:47.289Z,993.89
2018-02-21T09:11:47.277Z,993.87
2018-02-21T09:12:47.272Z,993.88
2018-02-21T09:13:47.257Z,993.88
2018-02-21T09:14:47.247Z,993.91
2018-02-21T09:15:47.236Z,993.92
2018-02-21T09:16:47.225Z,993.96
2018-02-21T09:17:47.216Z,993.95
2018-02-21T09:18:47.205Z,993.92
2018-02-21T09:19:47.197Z,993.95
2018-02-21T09:20:47.187Z,993.91
2018-02-21T09:21:47.231Z,993.95
2018-02-21T09:22:47.168Z,993.94
2018-02-21T09:23:47.159Z,993.93
2018-02-21T09:24:47.152Z,993.94
2018-02-21T09:25:47.138Z,993.94
2018-02-21T09:26:47.128Z,994
2018-02-21T09:27:47.119Z,994
2018-02-21T09:28:47.108Z,993.98
2018-02-21T09:29:47.098Z,994.04
2018-02-21T09:30:47.095Z,994.04
2018-02-21T09:31:47.079Z,993.98
2018-02-21T09:32:47.069Z,994.01
2018-02-21T09:33:47.062Z,994.03
2018-02-21T09:34:47.049Z,994.01
2018-02-21T09:35:47.039Z,994.06
2018-02-21T09:36:47.029Z,994.1
2018-02-21T09:37:47.020Z,994.09
2018-02-21T09:38:47.009Z,994.06
2018-02-21T09:39:47.001Z,994.1
2018-02-21T09:40:46.989Z,994.1
2018-02-21T09:41:46.978Z,994.05
2018-02-21T09:42:46.970Z,994.06
2018-02-21T09:43:46.961Z,994.07
2018-02-21T09:44:46.946Z,994.04
2018-02-21T09:45:46.943Z,994.09
2018-02-21T09:46:46.928Z,994.12
2018-02-21T09:47:46.915Z,994.1
2018-02-21T09:48:46.906Z,994.1
2018-02-21T09:49:46.896Z,994.12
2018-02-21T09:50:46.887Z,994.15
2018-02-21T09:51:46.876Z,994.15
2018-02-21T09:52:46.866Z,994.19
2018-02-21T09:53:46.868Z,994.13
2018-02-21T09:54:46.849Z,994.16
2018-02-21T09:55:46.838Z,994.18
2018-02-21T09:56:46.827Z,994.08
2018-02-21T09:57:46.817Z,994.05
2018-02-21T09:58:50.860Z,994.03
2018-02-21T09:59:46.793Z,994.06
2018-02-21T10:00:46.787Z,994.03
2018-02-21T10:01:46.778Z,994.03
2018-02-21T10:02:46.808Z,994.01
2018-02-21T10:03:46.755Z,994.02
2018-02-21T10:04:46.748Z,994.01
2018-02-21T10:05:46.736Z,994.02
2018-02-21T10:06:46.725Z,994.03
2018-02-21T10:07:46.716Z,994.03
2018-02-21T10:08:46.708Z,994.04
2018-02-21T10:09:46.696Z,994.05
2018-02-21T10:10:46.689Z,994.09
2018-02-21T10:11:46.678Z,994.06
2018-02-21T10:12:46.669Z,994.02
2018-02-21T10:13:46.660Z,993.99
2018-02-21T10:14:46.661Z,993.99
2018-02-21T10:15:46.641Z,994
2018-02-21T10:16:46.634Z,994.01
2018-02-21T10:17:46.621Z,994
2018-02-21T10:18:46.612Z,994.01
2018-02-21T10:19:46.611Z,993.99
2018-02-21T10:20:46.603Z,993.93
2018-02-21T10:21:46.604Z,994.01
2018-02-21T10:22:46.578Z,994.03
2018-02-21T10:23:46.566Z,993.99
2018-02-21T10:24:46.559Z,994.05
2018-02-21T10:55:27.565Z,994.04
2018-02-21T10:56:27.540Z,994.06
2018-02-21T10:57:27.525Z,994.07
2018-02-21T10:58:27.515Z,994.07
2018-02-21T10:59:27.494Z,994.03
2018-02-21T11:00:27.489Z,994.04
2018-02-21T11:01:27.471Z,994
2018-02-21T11:02:27.456Z,994.02
2018-02-21T11:03:27.446Z,994.03
2018-02-21T11:04:27.434Z,993.96
2018-02-21T11:05:27.434Z,993.95
2018-02-21T11:06:27.412Z,993.98
2018-02-21T11:07:27.400Z,993.99
2018-02-21T11:08:27.392Z,994
2018-02-21T11:09:27.381Z,994.05
2018-02-21T11:10:27.370Z,994.03
2018-02-21T11:11:27.364Z,994.01
2018-02-21T11:12:27.349Z,993.98
2018-02-21T11:13:27.346Z,993.95
2018-02-21T11:14:27.327Z,993.96
2018-02-21T11:15:27.318Z,993.93
2018-02-21T11:16:27.311Z,993.95
2018-02-21T11:17:27.300Z,993.94
2018-02-21T11:18:27.291Z,993.87
2018-02-21T11:19:27.278Z,993.91
2018-02-21T11:20:27.268Z,993.89
2018-02-21T11:21:27.262Z,993.84
2018-02-21T11:22:27.250Z,993.89
2018-02-21T11:23:27.247Z,993.86
2018-02-21T11:24:27.230Z,993.9
2018-02-21T11:25:27.222Z,993.85
2018-02-21T11:26:27.212Z,993.9
2018-02-21T11:27:27.203Z,993.87
2018-02-21T11:28:27.192Z,993.82
2018-02-21T11:29:27.184Z,993.85
2018-02-21T11:30:27.174Z,993.9
2018-02-21T11:31:27.165Z,993.87
2018-02-21T11:32:27.155Z,993.88
2018-02-21T11:33:27.146Z,993.91
2018-02-21T11:34:27.137Z,993.86
2018-02-21T11:35:27.131Z,993.88
2018-02-21T11:36:27.120Z,993.89
2018-02-21T11:37:27.110Z,993.86
2018-02-21T11:38:27.100Z,993.9
2018-02-21T11:39:27.091Z,993.95
2018-02-21T11:40:27.081Z,993.89
2018-02-21T11:41:27.074Z,993.94
2018-02-21T11:42:27.063Z,993.94
2018-02-21T11:43:27.054Z,993.84
2018-02-21T11:44:27.045Z,993.91
2018-02-21T11:45:27.036Z,993.85
2018-02-21T11:46:27.027Z,993.79
2018-02-21T11:47:27.016Z,993.78
2018-02-21T11:48:27.008Z,993.76
2018-02-21T11:49:26.998Z,993.74
2018-02-21T11:50:26.992Z,993.69
2018-02-21T11:51:26.979Z,993.73
2018-02-21T11:52:26.970Z,993.72
2018-02-21T11:53:26.961Z,993.77
2018-02-21T11:54:26.951Z,993.74
2018-02-21T11:55:26.941Z,993.71
2018-02-21T11:56:26.933Z,993.67
2018-02-21T11:57:26.924Z,993.68
2018-02-21T11:58:26.913Z,993.69
2018-02-21T11:59:26.904Z,993.65
2018-02-21T12:00:26.902Z,993.58
2018-02-21T12:01:26.884Z,993.53
2018-02-21T12:02:26.874Z,993.56
2018-02-21T12:03:26.866Z,993.52
2018-02-21T12:04:26.861Z,993.48
2018-02-21T12:05:26.848Z,993.57
2018-02-21T12:06:26.839Z,993.51
2018-02-21T12:07:27.034Z,993.44
2018-02-21T12:08:26.819Z,993.4
2018-02-21T12:09:26.812Z,993.34
2018-02-21T12:10:26.804Z,993.37
2018-02-21T12:11:27.892Z,993.34
2018-02-21T12:12:26.784Z,993.3
2018-02-21T12:13:26.775Z,993.29
2018-02-21T12:14:26.770Z,993.29
2018-02-21T12:15:26.752Z,993.23
2018-02-21T12:16:26.743Z,993.26
2018-02-21T12:17:26.737Z,993.25
2018-02-21T12:18:26.725Z,993.23
2018-02-21T12:19:26.717Z,993.23
2018-02-21T12:20:26.708Z,993.24
2018-02-21T12:21:26.696Z,993.25
2018-02-21T12:22:26.684Z,993.22
2018-02-21T12:23:26.679Z,993.23
2018-02-21T12:24:26.666Z,993.23
2018-02-21T12:25:26.658Z,993.25
2018-02-21T12:26:26.646Z,993.34
2018-02-21T12:27:26.637Z,993.27
2018-02-21T12:28:26.627Z,993.2
2018-02-21T12:29:26.664Z,993.27
2018-02-21T12:30:26.608Z,993.29
2018-02-21T12:31:26.599Z,993.28
2018-02-21T12:32:26.593Z,993.28
2018-02-21T12:33:26.590Z,993.21
2018-02-21T12:34:26.570Z,993.21
2018-02-21T12:35:26.563Z,993.21
2018-02-21T12:36:26.550Z,993.22
2018-02-21T12:37:26.540Z,993.17
2018-02-21T12:38:26.535Z,993.18
2018-02-21T12:39:26.526Z,993.19
2018-02-21T12:40:26.512Z,993.15
2018-02-21T12:41:26.499Z,993.12
2018-02-21T12:42:26.493Z,993.18
2018-02-21T12:43:26.481Z,993.15
2018-02-21T12:44:26.468Z,993.14
2018-02-21T12:45:26.460Z,993.09
2018-02-21T12:46:26.449Z,993.06
2018-02-21T12:47:26.441Z,993.08
2018-02-21T12:48:26.430Z,993.09
2018-02-21T12:49:26.420Z,993.05
2018-02-21T12:50:26.410Z,993.07
2018-02-21T12:51:26.401Z,993.06
2018-02-21T12:52:26.391Z,993.02
2018-02-21T12:53:26.384Z,993.04
2018-02-21T12:54:26.371Z,992.94
2018-02-21T12:55:26.364Z,992.94
2018-02-21T12:56:26.350Z,992.88
2018-02-21T12:57:26.342Z,992.92
2018-02-21T12:58:26.335Z,992.91
2018-02-21T12:59:26.331Z,992.98
2018-02-21T13:00:26.313Z,992.92
2018-02-21T13:01:26.302Z,992.93